sensor_id;sensor_type;location;lat;lon;timestamp;P1;durP1;ratioP1;P2;durP2;ratioP2
11342;SDS011;5726;42.160;24.746;2023-12-29T00:01:14;43.40;;;24.10;;
11342;SDS011;5726;42.160;24.746;2023-12-29T00:03:42;38.30;;;22.70;;
11342;SDS011;5726;42.160;24.746;2023-12-29T00:06:07;43.17;;;23.00;;
11342;SDS011;5726;42.160;24.746;2023-12-29T00:08:33;39.07;;;21.03;;
11342;SDS011;5726;42.160;24.746;2023-12-29T00:10:59;39.07;;;21.30;;
11342;SDS011;5726;42.160;24.746;2023-12-29T00:13:24;38.93;;;20.67;;
11342;SDS011;5726;42.160;24.746;2023-12-29T00:15:53;33.07;;;19.23;;
11342;SDS011;5726;42.160;24.746;2023-12-29T00:18:20;41.20;;;20.30;;
11342;SDS011;5726;42.160;24.746;2023-12-29T00:20:46;35.23;;;20.33;;
11342;SDS011;5726;42.160;24.746;2023-12-29T00:23:12;34.07;;;19.73;;
11342;SDS011;5726;42.160;24.746;2023-12-29T00:25:38;33.17;;;18.90;;
11342;SDS011;5726;42.160;24.746;2023-12-29T00:28:04;33.70;;;19.07;;
11342;SDS011;5726;42.160;24.746;2023-12-29T00:30:30;39.70;;;20.63;;
11342;SDS011;5726;42.160;24.746;2023-12-29T00:32:56;40.23;;;21.27;;
11342;SDS011;5726;42.160;24.746;2023-12-29T00:35:21;37.70;;;20.43;;
11342;SDS011;5726;42.160;24.746;2023-12-29T00:37:47;30.73;;;17.43;;
11342;SDS011;5726;42.160;24.746;2023-12-29T00:40:15;34.30;;;18.73;;
11342;SDS011;5726;42.160;24.746;2023-12-29T00:42:40;33.13;;;18.03;;
11342;SDS011;5726;42.160;24.746;2023-12-29T00:45:06;30.80;;;17.33;;
11342;SDS011;5726;42.160;24.746;2023-12-29T00:47:32;28.17;;;17.40;;
11342;SDS011;5726;42.160;24.746;2023-12-29T00:49:59;31.73;;;18.00;;
11342;SDS011;5726;42.160;24.746;2023-12-29T00:52:26;31.73;;;18.93;;
11342;SDS011;5726;42.160;24.746;2023-12-29T00:54:52;33.53;;;17.37;;
11342;SDS011;5726;42.160;24.746;2023-12-29T00:57:18;28.13;;;16.10;;
11342;SDS011;5726;42.160;24.746;2023-12-29T00:59:46;28.53;;;16.07;;
11342;SDS011;5726;42.160;24.746;2023-12-29T01:02:12;30.70;;;15.93;;
11342;SDS011;5726;42.160;24.746;2023-12-29T01:04:38;27.87;;;15.87;;
11342;SDS011;5726;42.160;24.746;2023-12-29T01:07:04;28.57;;;15.80;;
11342;SDS011;5726;42.160;24.746;2023-12-29T01:09:30;25.87;;;14.40;;
11342;SDS011;5726;42.160;24.746;2023-12-29T01:11:55;26.43;;;14.30;;
11342;SDS011;5726;42.160;24.746;2023-12-29T01:14:21;25.90;;;13.80;;
11342;SDS011;5726;42.160;24.746;2023-12-29T01:16:46;25.23;;;13.87;;
11342;SDS011;5726;42.160;24.746;2023-12-29T01:19:12;23.23;;;13.90;;
11342;SDS011;5726;42.160;24.746;2023-12-29T01:21:38;24.73;;;13.57;;
11342;SDS011;5726;42.160;24.746;2023-12-29T01:24:03;23.57;;;13.60;;
11342;SDS011;5726;42.160;24.746;2023-12-29T01:26:30;26.10;;;14.10;;
11342;SDS011;5726;42.160;24.746;2023-12-29T01:28:55;44.10;;;21.60;;
11342;SDS011;5726;42.160;24.746;2023-12-29T01:31:21;34.47;;;18.30;;
11342;SDS011;5726;42.160;24.746;2023-12-29T01:33:47;32.10;;;16.30;;
11342;SDS011;5726;42.160;24.746;2023-12-29T01:36:19;27.87;;;15.07;;
11342;SDS011;5726;42.160;24.746;2023-12-29T01:38:44;25.53;;;14.23;;
11342;SDS011;5726;42.160;24.746;2023-12-29T01:41:10;25.43;;;13.83;;
11342;SDS011;5726;42.160;24.746;2023-12-29T01:43:35;23.90;;;14.30;;
11342;SDS011;5726;42.160;24.746;2023-12-29T01:46:01;27.03;;;14.47;;
11342;SDS011;5726;42.160;24.746;2023-12-29T01:48:27;26.00;;;14.00;;
11342;SDS011;5726;42.160;24.746;2023-12-29T01:50:53;25.40;;;14.70;;
11342;SDS011;5726;42.160;24.746;2023-12-29T01:53:19;27.47;;;16.43;;
11342;SDS011;5726;42.160;24.746;2023-12-29T01:55:45;27.23;;;15.50;;
11342;SDS011;5726;42.160;24.746;2023-12-29T01:58:11;23.30;;;14.17;;
11342;SDS011;5726;42.160;24.746;2023-12-29T02:00:37;24.40;;;14.47;;
11342;SDS011;5726;42.160;24.746;2023-12-29T02:03:04;21.70;;;12.80;;
11342;SDS011;5726;42.160;24.746;2023-12-29T02:05:30;18.40;;;11.57;;
11342;SDS011;5726;42.160;24.746;2023-12-29T02:07:56;21.27;;;10.63;;
11342;SDS011;5726;42.160;24.746;2023-12-29T02:10:21;20.33;;;11.53;;
11342;SDS011;5726;42.160;24.746;2023-12-29T02:12:49;21.50;;;11.10;;
11342;SDS011;5726;42.160;24.746;2023-12-29T02:15:15;19.63;;;11.30;;
11342;SDS011;5726;42.160;24.746;2023-12-29T02:17:44;19.13;;;11.17;;
11342;SDS011;5726;42.160;24.746;2023-12-29T02:20:12;21.73;;;10.83;;
11342;SDS011;5726;42.160;24.746;2023-12-29T02:22:39;19.00;;;11.27;;
11342;SDS011;5726;42.160;24.746;2023-12-29T02:25:07;21.07;;;11.80;;
11342;SDS011;5726;42.160;24.746;2023-12-29T02:27:36;23.10;;;11.30;;
11342;SDS011;5726;42.160;24.746;2023-12-29T02:33:00;19.30;;;13.00;;
11342;SDS011;5726;42.160;24.746;2023-12-29T02:35:28;21.73;;;12.10;;
11342;SDS011;5726;42.160;24.746;2023-12-29T02:37:57;21.43;;;12.50;;
11342;SDS011;5726;42.160;24.746;2023-12-29T02:40:24;24.67;;;12.83;;
11342;SDS011;5726;42.160;24.746;2023-12-29T02:42:50;22.43;;;12.83;;
11342;SDS011;5726;42.160;24.746;2023-12-29T02:45:16;23.10;;;12.73;;
11342;SDS011;5726;42.160;24.746;2023-12-29T02:47:42;23.57;;;12.87;;
11342;SDS011;5726;42.160;24.746;2023-12-29T02:50:09;25.73;;;14.70;;
11342;SDS011;5726;42.160;24.746;2023-12-29T02:52:35;20.77;;;13.33;;
11342;SDS011;5726;42.160;24.746;2023-12-29T02:55:01;27.03;;;14.63;;
11342;SDS011;5726;42.160;24.746;2023-12-29T02:57:26;25.57;;;15.27;;
11342;SDS011;5726;42.160;24.746;2023-12-29T02:59:52;26.17;;;15.77;;
11342;SDS011;5726;42.160;24.746;2023-12-29T03:02:18;30.40;;;17.40;;
11342;SDS011;5726;42.160;24.746;2023-12-29T03:04:43;31.47;;;18.17;;
11342;SDS011;5726;42.160;24.746;2023-12-29T03:07:09;30.33;;;18.03;;
11342;SDS011;5726;42.160;24.746;2023-12-29T03:09:35;31.87;;;17.50;;
11342;SDS011;5726;42.160;24.746;2023-12-29T03:12:00;30.07;;;17.57;;
11342;SDS011;5726;42.160;24.746;2023-12-29T03:14:26;28.50;;;17.67;;
11342;SDS011;5726;42.160;24.746;2023-12-29T03:16:52;29.20;;;17.83;;
11342;SDS011;5726;42.160;24.746;2023-12-29T03:19:17;28.63;;;16.97;;
11342;SDS011;5726;42.160;24.746;2023-12-29T03:21:43;28.50;;;17.60;;
11342;SDS011;5726;42.160;24.746;2023-12-29T03:24:08;32.47;;;16.73;;
11342;SDS011;5726;42.160;24.746;2023-12-29T03:26:34;28.13;;;16.53;;
11342;SDS011;5726;42.160;24.746;2023-12-29T03:29:00;23.67;;;16.00;;
11342;SDS011;5726;42.160;24.746;2023-12-29T03:31:26;26.43;;;16.10;;
11342;SDS011;5726;42.160;24.746;2023-12-29T03:33:52;26.67;;;15.67;;
11342;SDS011;5726;42.160;24.746;2023-12-29T03:36:18;25.47;;;16.50;;
11342;SDS011;5726;42.160;24.746;2023-12-29T03:38:44;30.47;;;17.07;;
11342;SDS011;5726;42.160;24.746;2023-12-29T03:41:09;38.43;;;18.70;;
11342;SDS011;5726;42.160;24.746;2023-12-29T03:43:35;30.50;;;17.40;;
11342;SDS011;5726;42.160;24.746;2023-12-29T03:46:00;31.23;;;18.73;;
11342;SDS011;5726;42.160;24.746;2023-12-29T03:48:26;32.33;;;20.23;;
11342;SDS011;5726;42.160;24.746;2023-12-29T03:50:51;34.57;;;19.50;;
11342;SDS011;5726;42.160;24.746;2023-12-29T03:53:17;31.47;;;18.83;;
11342;SDS011;5726;42.160;24.746;2023-12-29T03:55:44;36.13;;;19.57;;
11342;SDS011;5726;42.160;24.746;2023-12-29T03:58:10;37.30;;;20.67;;
11342;SDS011;5726;42.160;24.746;2023-12-29T04:00:36;40.30;;;20.97;;
11342;SDS011;5726;42.160;24.746;2023-12-29T04:03:01;36.23;;;20.50;;
11342;SDS011;5726;42.160;24.746;2023-12-29T04:05:27;36.17;;;22.03;;
11342;SDS011;5726;42.160;24.746;2023-12-29T04:07:53;37.53;;;22.03;;
11342;SDS011;5726;42.160;24.746;2023-12-29T04:10:18;45.23;;;24.77;;
11342;SDS011;5726;42.160;24.746;2023-12-29T04:12:44;41.00;;;25.97;;
11342;SDS011;5726;42.160;24.746;2023-12-29T04:15:10;43.93;;;25.40;;
11342;SDS011;5726;42.160;24.746;2023-12-29T04:17:35;43.40;;;24.97;;
11342;SDS011;5726;42.160;24.746;2023-12-29T04:20:01;36.80;;;22.13;;
11342;SDS011;5726;42.160;24.746;2023-12-29T04:22:26;36.97;;;23.77;;
11342;SDS011;5726;42.160;24.746;2023-12-29T04:24:52;33.37;;;20.07;;
11342;SDS011;5726;42.160;24.746;2023-12-29T04:27:18;45.23;;;24.83;;
11342;SDS011;5726;42.160;24.746;2023-12-29T04:29:44;44.17;;;24.77;;
11342;SDS011;5726;42.160;24.746;2023-12-29T04:32:10;41.70;;;23.93;;
11342;SDS011;5726;42.160;24.746;2023-12-29T04:34:36;53.00;;;28.70;;
11342;SDS011;5726;42.160;24.746;2023-12-29T04:37:01;53.37;;;28.77;;
11342;SDS011;5726;42.160;24.746;2023-12-29T04:39:27;48.77;;;25.57;;
11342;SDS011;5726;42.160;24.746;2023-12-29T04:41:53;56.23;;;29.70;;
11342;SDS011;5726;42.160;24.746;2023-12-29T04:44:18;42.23;;;25.83;;
11342;SDS011;5726;42.160;24.746;2023-12-29T04:46:44;161.00;;;68.53;;
11342;SDS011;5726;42.160;24.746;2023-12-29T04:49:09;221.77;;;89.07;;
11342;SDS011;5726;42.160;24.746;2023-12-29T04:51:35;184.47;;;72.80;;
11342;SDS011;5726;42.160;24.746;2023-12-29T04:54:01;125.87;;;55.20;;
11342;SDS011;5726;42.160;24.746;2023-12-29T04:56:27;102.40;;;45.63;;
11342;SDS011;5726;42.160;24.746;2023-12-29T04:58:52;65.43;;;35.70;;
11342;SDS011;5726;42.160;24.746;2023-12-29T05:01:18;63.87;;;34.00;;
11342;SDS011;5726;42.160;24.746;2023-12-29T05:03:43;51.77;;;29.63;;
11342;SDS011;5726;42.160;24.746;2023-12-29T05:06:09;51.03;;;28.37;;
11342;SDS011;5726;42.160;24.746;2023-12-29T05:08:35;48.40;;;29.40;;
11342;SDS011;5726;42.160;24.746;2023-12-29T05:11:00;44.00;;;27.13;;
11342;SDS011;5726;42.160;24.746;2023-12-29T05:13:26;48.43;;;29.67;;
11342;SDS011;5726;42.160;24.746;2023-12-29T05:15:51;52.13;;;27.70;;
11342;SDS011;5726;42.160;24.746;2023-12-29T05:18:17;42.43;;;25.73;;
11342;SDS011;5726;42.160;24.746;2023-12-29T05:20:43;42.97;;;25.53;;
11342;SDS011;5726;42.160;24.746;2023-12-29T05:23:08;44.03;;;26.33;;
11342;SDS011;5726;42.160;24.746;2023-12-29T05:25:34;44.30;;;25.33;;
11342;SDS011;5726;42.160;24.746;2023-12-29T05:27:59;36.77;;;22.60;;
11342;SDS011;5726;42.160;24.746;2023-12-29T05:30:25;45.77;;;27.53;;
11342;SDS011;5726;42.160;24.746;2023-12-29T05:32:56;40.87;;;25.47;;
11342;SDS011;5726;42.160;24.746;2023-12-29T05:35:22;40.77;;;27.27;;
11342;SDS011;5726;42.160;24.746;2023-12-29T05:37:47;44.10;;;29.47;;
11342;SDS011;5726;42.160;24.746;2023-12-29T05:40:13;31.60;;;21.73;;
11342;SDS011;5726;42.160;24.746;2023-12-29T05:42:38;36.43;;;18.73;;
11342;SDS011;5726;42.160;24.746;2023-12-29T05:45:04;30.00;;;15.87;;
11342;SDS011;5726;42.160;24.746;2023-12-29T05:47:30;25.47;;;14.03;;
11342;SDS011;5726;42.160;24.746;2023-12-29T05:49:55;21.57;;;12.33;;
11342;SDS011;5726;42.160;24.746;2023-12-29T05:52:21;19.37;;;12.77;;
11342;SDS011;5726;42.160;24.746;2023-12-29T05:54:47;24.60;;;14.63;;
11342;SDS011;5726;42.160;24.746;2023-12-29T05:57:13;23.50;;;13.60;;
11342;SDS011;5726;42.160;24.746;2023-12-29T05:59:39;23.57;;;14.20;;
11342;SDS011;5726;42.160;24.746;2023-12-29T06:02:05;19.43;;;13.70;;
11342;SDS011;5726;42.160;24.746;2023-12-29T06:04:30;23.50;;;13.63;;
11342;SDS011;5726;42.160;24.746;2023-12-29T06:06:56;25.30;;;14.07;;
11342;SDS011;5726;42.160;24.746;2023-12-29T06:09:21;25.70;;;14.93;;
11342;SDS011;5726;42.160;24.746;2023-12-29T06:11:47;24.73;;;12.70;;
11342;SDS011;5726;42.160;24.746;2023-12-29T06:14:13;24.47;;;13.77;;
11342;SDS011;5726;42.160;24.746;2023-12-29T06:16:38;23.77;;;13.60;;
11342;SDS011;5726;42.160;24.746;2023-12-29T06:19:04;26.00;;;14.47;;
11342;SDS011;5726;42.160;24.746;2023-12-29T06:21:29;22.77;;;13.27;;
11342;SDS011;5726;42.160;24.746;2023-12-29T06:23:55;26.27;;;17.87;;
11342;SDS011;5726;42.160;24.746;2023-12-29T06:26:20;29.73;;;18.37;;
11342;SDS011;5726;42.160;24.746;2023-12-29T06:28:48;32.00;;;17.77;;
11342;SDS011;5726;42.160;24.746;2023-12-29T06:31:13;32.67;;;17.10;;
11342;SDS011;5726;42.160;24.746;2023-12-29T06:33:42;30.00;;;17.27;;
11342;SDS011;5726;42.160;24.746;2023-12-29T06:36:08;35.23;;;20.37;;
11342;SDS011;5726;42.160;24.746;2023-12-29T06:38:35;36.23;;;21.13;;
11342;SDS011;5726;42.160;24.746;2023-12-29T06:41:01;27.80;;;18.60;;
11342;SDS011;5726;42.160;24.746;2023-12-29T06:43:28;35.20;;;17.57;;
11342;SDS011;5726;42.160;24.746;2023-12-29T06:45:53;29.53;;;17.43;;
11342;SDS011;5726;42.160;24.746;2023-12-29T06:48:19;24.93;;;14.57;;
11342;SDS011;5726;42.160;24.746;2023-12-29T06:50:45;31.77;;;15.63;;
11342;SDS011;5726;42.160;24.746;2023-12-29T06:53:11;71.03;;;37.23;;
11342;SDS011;5726;42.160;24.746;2023-12-29T06:55:36;31.27;;;18.97;;
11342;SDS011;5726;42.160;24.746;2023-12-29T06:58:02;32.57;;;20.33;;
11342;SDS011;5726;42.160;24.746;2023-12-29T07:00:29;35.00;;;18.57;;
11342;SDS011;5726;42.160;24.746;2023-12-29T07:02:55;47.00;;;24.77;;
11342;SDS011;5726;42.160;24.746;2023-12-29T07:05:20;24.60;;;14.37;;
11342;SDS011;5726;42.160;24.746;2023-12-29T07:07:46;29.80;;;15.93;;
11342;SDS011;5726;42.160;24.746;2023-12-29T07:10:12;59.53;;;31.10;;
11342;SDS011;5726;42.160;24.746;2023-12-29T07:12:38;39.23;;;20.40;;
11342;SDS011;5726;42.160;24.746;2023-12-29T07:15:05;34.03;;;19.53;;
11342;SDS011;5726;42.160;24.746;2023-12-29T07:17:31;41.00;;;20.43;;
11342;SDS011;5726;42.160;24.746;2023-12-29T07:19:57;39.07;;;21.17;;
11342;SDS011;5726;42.160;24.746;2023-12-29T07:22:22;35.60;;;20.43;;
11342;SDS011;5726;42.160;24.746;2023-12-29T07:24:48;29.80;;;17.27;;
11342;SDS011;5726;42.160;24.746;2023-12-29T07:27:13;32.97;;;18.37;;
11342;SDS011;5726;42.160;24.746;2023-12-29T07:29:39;29.87;;;19.40;;
11342;SDS011;5726;42.160;24.746;2023-12-29T07:32:05;32.87;;;18.20;;
11342;SDS011;5726;42.160;24.746;2023-12-29T07:34:30;28.67;;;15.70;;
11342;SDS011;5726;42.160;24.746;2023-12-29T07:36:56;23.80;;;14.67;;
11342;SDS011;5726;42.160;24.746;2023-12-29T07:39:23;28.17;;;15.93;;
11342;SDS011;5726;42.160;24.746;2023-12-29T07:41:49;22.40;;;13.30;;
11342;SDS011;5726;42.160;24.746;2023-12-29T07:44:16;24.73;;;14.50;;
11342;SDS011;5726;42.160;24.746;2023-12-29T07:46:42;21.80;;;12.90;;
11342;SDS011;5726;42.160;24.746;2023-12-29T07:49:09;20.83;;;12.30;;
11342;SDS011;5726;42.160;24.746;2023-12-29T07:51:38;24.27;;;12.50;;
11342;SDS011;5726;42.160;24.746;2023-12-29T07:54:05;20.87;;;12.40;;
11342;SDS011;5726;42.160;24.746;2023-12-29T07:56:32;21.17;;;13.50;;
11342;SDS011;5726;42.160;24.746;2023-12-29T07:58:57;23.30;;;13.33;;
11342;SDS011;5726;42.160;24.746;2023-12-29T08:01:23;23.53;;;14.43;;
11342;SDS011;5726;42.160;24.746;2023-12-29T08:03:48;35.97;;;17.33;;
11342;SDS011;5726;42.160;24.746;2023-12-29T08:06:14;22.47;;;13.67;;
11342;SDS011;5726;42.160;24.746;2023-12-29T08:08:39;25.60;;;13.50;;
11342;SDS011;5726;42.160;24.746;2023-12-29T08:11:05;24.60;;;13.17;;
11342;SDS011;5726;42.160;24.746;2023-12-29T08:13:31;28.33;;;13.37;;
11342;SDS011;5726;42.160;24.746;2023-12-29T08:15:56;25.03;;;14.17;;
11342;SDS011;5726;42.160;24.746;2023-12-29T08:18:22;28.20;;;14.23;;
11342;SDS011;5726;42.160;24.746;2023-12-29T08:20:47;31.30;;;14.00;;
11342;SDS011;5726;42.160;24.746;2023-12-29T08:23:13;22.37;;;13.53;;
11342;SDS011;5726;42.160;24.746;2023-12-29T08:25:38;27.47;;;16.07;;
11342;SDS011;5726;42.160;24.746;2023-12-29T08:28:04;28.43;;;15.53;;
11342;SDS011;5726;42.160;24.746;2023-12-29T08:30:30;30.63;;;16.07;;
11342;SDS011;5726;42.160;24.746;2023-12-29T08:32:59;41.23;;;20.70;;
11342;SDS011;5726;42.160;24.746;2023-12-29T08:35:24;120.50;;;65.80;;
11342;SDS011;5726;42.160;24.746;2023-12-29T08:37:50;39.13;;;20.50;;
11342;SDS011;5726;42.160;24.746;2023-12-29T08:40:15;37.77;;;19.27;;
11342;SDS011;5726;42.160;24.746;2023-12-29T08:42:41;36.63;;;19.17;;
11342;SDS011;5726;42.160;24.746;2023-12-29T08:45:07;31.77;;;17.87;;
11342;SDS011;5726;42.160;24.746;2023-12-29T08:47:32;35.57;;;18.13;;
11342;SDS011;5726;42.160;24.746;2023-12-29T08:49:58;35.03;;;17.23;;
11342;SDS011;5726;42.160;24.746;2023-12-29T08:52:23;29.07;;;17.17;;
11342;SDS011;5726;42.160;24.746;2023-12-29T08:54:49;36.33;;;17.23;;
11342;SDS011;5726;42.160;24.746;2023-12-29T08:57:15;29.17;;;19.00;;
11342;SDS011;5726;42.160;24.746;2023-12-29T08:59:40;58.70;;;31.30;;
11342;SDS011;5726;42.160;24.746;2023-12-29T09:02:06;36.13;;;20.23;;
11342;SDS011;5726;42.160;24.746;2023-12-29T09:04:31;28.70;;;16.60;;
11342;SDS011;5726;42.160;24.746;2023-12-29T09:06:57;24.60;;;15.13;;
11342;SDS011;5726;42.160;24.746;2023-12-29T09:09:22;25.87;;;12.27;;
11342;SDS011;5726;42.160;24.746;2023-12-29T09:11:48;21.73;;;11.37;;
11342;SDS011;5726;42.160;24.746;2023-12-29T09:14:13;20.70;;;11.67;;
11342;SDS011;5726;42.160;24.746;2023-12-29T09:16:40;23.43;;;12.80;;
11342;SDS011;5726;42.160;24.746;2023-12-29T09:19:07;18.03;;;10.63;;
11342;SDS011;5726;42.160;24.746;2023-12-29T09:21:33;20.10;;;11.77;;
11342;SDS011;5726;42.160;24.746;2023-12-29T09:23:58;20.90;;;10.53;;
11342;SDS011;5726;42.160;24.746;2023-12-29T09:26:24;15.90;;;9.90;;
11342;SDS011;5726;42.160;24.746;2023-12-29T09:28:50;21.23;;;10.93;;
11342;SDS011;5726;42.160;24.746;2023-12-29T09:31:15;25.33;;;11.40;;
11342;SDS011;5726;42.160;24.746;2023-12-29T09:33:40;19.60;;;10.53;;
11342;SDS011;5726;42.160;24.746;2023-12-29T09:36:06;18.83;;;10.75;;
11342;SDS011;5726;42.160;24.746;2023-12-29T09:38:31;89.97;;;49.93;;
11342;SDS011;5726;42.160;24.746;2023-12-29T09:40:59;35.10;;;15.87;;
11342;SDS011;5726;42.160;24.746;2023-12-29T09:43:30;24.10;;;11.10;;
11342;SDS011;5726;42.160;24.746;2023-12-29T09:45:56;17.20;;;9.70;;
11342;SDS011;5726;42.160;24.746;2023-12-29T09:48:24;26.43;;;10.90;;
11342;SDS011;5726;42.160;24.746;2023-12-29T09:50:52;15.23;;;9.50;;
11342;SDS011;5726;42.160;24.746;2023-12-29T09:53:19;16.63;;;9.07;;
11342;SDS011;5726;42.160;24.746;2023-12-29T09:55:48;22.60;;;12.83;;
11342;SDS011;5726;42.160;24.746;2023-12-29T09:58:15;20.83;;;12.00;;
11342;SDS011;5726;42.160;24.746;2023-12-29T10:00:43;17.13;;;10.80;;
11342;SDS011;5726;42.160;24.746;2023-12-29T10:03:11;15.20;;;8.87;;
11342;SDS011;5726;42.160;24.746;2023-12-29T10:05:37;13.97;;;8.40;;
11342;SDS011;5726;42.160;24.746;2023-12-29T10:08:02;16.50;;;9.40;;
11342;SDS011;5726;42.160;24.746;2023-12-29T10:10:30;22.37;;;10.00;;
11342;SDS011;5726;42.160;24.746;2023-12-29T10:12:58;22.93;;;9.93;;
11342;SDS011;5726;42.160;24.746;2023-12-29T10:15:39;18.00;;;9.50;;
11342;SDS011;5726;42.160;24.746;2023-12-29T10:23:28;19.33;;;11.23;;
11342;SDS011;5726;42.160;24.746;2023-12-29T10:26:00;21.17;;;11.77;;
11342;SDS011;5726;42.160;24.746;2023-12-29T10:28:27;30.33;;;12.10;;
11342;SDS011;5726;42.160;24.746;2023-12-29T10:30:52;24.73;;;12.60;;
11342;SDS011;5726;42.160;24.746;2023-12-29T10:33:21;19.70;;;11.30;;
11342;SDS011;5726;42.160;24.746;2023-12-29T10:35:56;28.60;;;12.80;;
11342;SDS011;5726;42.160;24.746;2023-12-29T10:38:26;24.27;;;14.13;;
11342;SDS011;5726;42.160;24.746;2023-12-29T10:40:52;23.97;;;13.10;;
11342;SDS011;5726;42.160;24.746;2023-12-29T10:43:24;26.20;;;13.50;;
11342;SDS011;5726;42.160;24.746;2023-12-29T10:45:51;21.77;;;13.70;;
11342;SDS011;5726;42.160;24.746;2023-12-29T10:48:32;27.73;;;15.10;;
11342;SDS011;5726;42.160;24.746;2023-12-29T10:50:58;25.93;;;14.20;;
11342;SDS011;5726;42.160;24.746;2023-12-29T10:53:23;24.37;;;14.03;;
11342;SDS011;5726;42.160;24.746;2023-12-29T10:55:49;21.33;;;13.47;;
11342;SDS011;5726;42.160;24.746;2023-12-29T10:58:17;29.60;;;13.10;;
11342;SDS011;5726;42.160;24.746;2023-12-29T11:00:44;26.63;;;14.50;;
11342;SDS011;5726;42.160;24.746;2023-12-29T11:03:14;27.17;;;14.27;;
11342;SDS011;5726;42.160;24.746;2023-12-29T11:05:41;29.17;;;15.00;;
11342;SDS011;5726;42.160;24.746;2023-12-29T11:08:17;29.23;;;14.60;;
11342;SDS011;5726;42.160;24.746;2023-12-29T11:10:43;29.53;;;14.90;;
11342;SDS011;5726;42.160;24.746;2023-12-29T11:13:13;27.47;;;15.17;;
11342;SDS011;5726;42.160;24.746;2023-12-29T11:15:42;29.77;;;15.37;;
11342;SDS011;5726;42.160;24.746;2023-12-29T11:18:15;31.10;;;15.40;;
11342;SDS011;5726;42.160;24.746;2023-12-29T11:20:43;26.53;;;15.63;;
11342;SDS011;5726;42.160;24.746;2023-12-29T11:23:10;34.93;;;19.77;;
11342;SDS011;5726;42.160;24.746;2023-12-29T11:25:39;32.97;;;16.93;;
11342;SDS011;5726;42.160;24.746;2023-12-29T11:28:08;39.40;;;17.00;;
11342;SDS011;5726;42.160;24.746;2023-12-29T11:30:37;28.83;;;14.67;;
11342;SDS011;5726;42.160;24.746;2023-12-29T11:33:05;26.10;;;13.47;;
11342;SDS011;5726;42.160;24.746;2023-12-29T11:43:12;35.87;;;14.10;;
11342;SDS011;5726;42.160;24.746;2023-12-29T11:45:39;31.40;;;14.67;;
11342;SDS011;5726;42.160;24.746;2023-12-29T11:48:05;29.57;;;14.83;;
11342;SDS011;5726;42.160;24.746;2023-12-29T11:52:58;27.07;;;14.17;;
11342;SDS011;5726;42.160;24.746;2023-12-29T11:55:57;29.73;;;14.00;;
11342;SDS011;5726;42.160;24.746;2023-12-29T11:58:25;23.87;;;13.90;;
11342;SDS011;5726;42.160;24.746;2023-12-29T12:00:53;22.47;;;13.73;;
11342;SDS011;5726;42.160;24.746;2023-12-29T12:03:27;22.10;;;14.00;;
11342;SDS011;5726;42.160;24.746;2023-12-29T12:05:56;23.87;;;13.83;;
11342;SDS011;5726;42.160;24.746;2023-12-29T12:08:41;27.17;;;12.83;;
11342;SDS011;5726;42.160;24.746;2023-12-29T12:13:54;26.63;;;11.67;;
11342;SDS011;5726;42.160;24.746;2023-12-29T12:19:10;21.87;;;10.93;;
11342;SDS011;5726;42.160;24.746;2023-12-29T12:21:36;19.17;;;11.73;;
11342;SDS011;5726;42.160;24.746;2023-12-29T12:24:05;22.53;;;10.70;;
11342;SDS011;5726;42.160;24.746;2023-12-29T12:26:32;20.77;;;12.40;;
11342;SDS011;5726;42.160;24.746;2023-12-29T12:28:58;30.13;;;14.20;;
11342;SDS011;5726;42.160;24.746;2023-12-29T12:31:24;27.63;;;11.87;;
11342;SDS011;5726;42.160;24.746;2023-12-29T12:33:57;21.33;;;11.20;;
11342;SDS011;5726;42.160;24.746;2023-12-29T12:36:25;20.03;;;10.70;;
11342;SDS011;5726;42.160;24.746;2023-12-29T12:38:55;20.30;;;10.20;;
11342;SDS011;5726;42.160;24.746;2023-12-29T12:41:22;20.47;;;10.50;;
11342;SDS011;5726;42.160;24.746;2023-12-29T12:46:33;37.13;;;22.13;;
11342;SDS011;5726;42.160;24.746;2023-12-29T12:49:03;26.17;;;14.43;;
11342;SDS011;5726;42.160;24.746;2023-12-29T12:51:29;25.93;;;12.87;;
11342;SDS011;5726;42.160;24.746;2023-12-29T12:53:55;30.80;;;13.17;;
11342;SDS011;5726;42.160;24.746;2023-12-29T12:56:21;24.73;;;12.33;;
11342;SDS011;5726;42.160;24.746;2023-12-29T12:58:47;29.13;;;12.37;;
11342;SDS011;5726;42.160;24.746;2023-12-29T13:01:13;23.17;;;12.40;;
11342;SDS011;5726;42.160;24.746;2023-12-29T13:03:38;22.97;;;12.57;;
11342;SDS011;5726;42.160;24.746;2023-12-29T13:06:05;23.77;;;12.47;;
11342;SDS011;5726;42.160;24.746;2023-12-29T13:08:32;22.43;;;11.93;;
11342;SDS011;5726;42.160;24.746;2023-12-29T13:10:58;23.90;;;11.93;;
11342;SDS011;5726;42.160;24.746;2023-12-29T13:13:35;43.13;;;28.20;;
11342;SDS011;5726;42.160;24.746;2023-12-29T13:16:01;127.77;;;79.33;;
11342;SDS011;5726;42.160;24.746;2023-12-29T13:18:29;23.73;;;12.73;;
11342;SDS011;5726;42.160;24.746;2023-12-29T13:20:59;20.33;;;11.57;;
11342;SDS011;5726;42.160;24.746;2023-12-29T13:23:29;33.93;;;14.37;;
11342;SDS011;5726;42.160;24.746;2023-12-29T13:25:55;26.57;;;14.47;;
11342;SDS011;5726;42.160;24.746;2023-12-29T13:28:23;16.80;;;11.80;;
11342;SDS011;5726;42.160;24.746;2023-12-29T13:30:48;22.30;;;11.27;;
11342;SDS011;5726;42.160;24.746;2023-12-29T13:33:59;24.00;;;11.10;;
11342;SDS011;5726;42.160;24.746;2023-12-29T13:36:24;21.83;;;11.57;;
11342;SDS011;5726;42.160;24.746;2023-12-29T13:38:53;16.67;;;10.50;;
11342;SDS011;5726;42.160;24.746;2023-12-29T13:41:23;19.20;;;11.57;;
11342;SDS011;5726;42.160;24.746;2023-12-29T13:43:50;24.27;;;16.13;;
11342;SDS011;5726;42.160;24.746;2023-12-29T13:46:18;20.30;;;12.97;;
11342;SDS011;5726;42.160;24.746;2023-12-29T13:48:44;17.43;;;11.17;;
11342;SDS011;5726;42.160;24.746;2023-12-29T13:51:15;20.43;;;10.87;;
11342;SDS011;5726;42.160;24.746;2023-12-29T13:53:41;20.50;;;12.10;;
11342;SDS011;5726;42.160;24.746;2023-12-29T13:56:10;18.57;;;11.53;;
11342;SDS011;5726;42.160;24.746;2023-12-29T13:58:36;20.70;;;11.93;;
11342;SDS011;5726;42.160;24.746;2023-12-29T14:01:03;22.23;;;11.43;;
11342;SDS011;5726;42.160;24.746;2023-12-29T14:03:46;20.70;;;11.80;;
11342;SDS011;5726;42.160;24.746;2023-12-29T14:06:49;19.97;;;12.73;;
11342;SDS011;5726;42.160;24.746;2023-12-29T14:09:17;22.40;;;12.03;;
11342;SDS011;5726;42.160;24.746;2023-12-29T14:11:47;18.23;;;11.93;;
11342;SDS011;5726;42.160;24.746;2023-12-29T14:14:13;21.97;;;13.50;;
11342;SDS011;5726;42.160;24.746;2023-12-29T14:16:41;22.30;;;12.27;;
11342;SDS011;5726;42.160;24.746;2023-12-29T14:19:08;18.53;;;12.73;;
11342;SDS011;5726;42.160;24.746;2023-12-29T14:21:33;17.77;;;11.73;;
11342;SDS011;5726;42.160;24.746;2023-12-29T14:26:32;17.43;;;11.53;;
11342;SDS011;5726;42.160;24.746;2023-12-29T14:29:01;16.63;;;11.37;;
11342;SDS011;5726;42.160;24.746;2023-12-29T14:31:31;19.40;;;11.50;;
11342;SDS011;5726;42.160;24.746;2023-12-29T14:33:59;17.87;;;11.67;;
11342;SDS011;5726;42.160;24.746;2023-12-29T14:36:25;18.80;;;12.00;;
11342;SDS011;5726;42.160;24.746;2023-12-29T14:38:51;18.40;;;11.50;;
11342;SDS011;5726;42.160;24.746;2023-12-29T14:41:18;21.23;;;11.07;;
11342;SDS011;5726;42.160;24.746;2023-12-29T14:43:44;23.20;;;11.43;;
11342;SDS011;5726;42.160;24.746;2023-12-29T14:46:09;16.93;;;10.87;;
11342;SDS011;5726;42.160;24.746;2023-12-29T14:48:35;17.67;;;10.90;;